Latest Weather Observations for Mount Magnet Airport

IDW60801

Issued at 4:33 pm WST Friday 20 October 2017 (issued every 30 minutes, with the page automatically refreshed every 10 minutes)

About weather observations | Map of weather stations | Latest weather observations for WA | Other Formats
Station Details ID: 007600 Name: MOUNT MAGNET AERO Lat: -28.12 Lon: 117.84 Height: 407.0 m
Data from the previous 72 hours. | See also: Recent months at Mount Magnet Airport
Date/Time
WST
Temp
°C
App
Temp
°C
Dew
Point
°C
Rel
Hum
%
Delta-T
°C
Wind Press
QNH
hPa
Press
MSL
hPa
Rain since
9am
mm
Dir  Spd
km/h
Gust
km/h
Spd
kts
Gust
kts
20/04:30pm 32.6 26.4 -0.5 12 16.2 E 22 33 12 18 1018.3 1016.6 0.0
20/04:00pm 32.9 26.3 -0.2 12 16.3 E 24 28 13 15 1018.4 1016.7 0.0
20/03:30pm 32.6 26.7 -0.5 12 16.3 E 20 33 11 18 1018.4 1016.7 0.0
20/03:00pm 31.7 25.9 -0.1 13 15.6 ESE 20 30 11 16 1018.7 1017.0 0.0
20/02:30pm 32.8 26.2 -0.3 12 16.3 E 24 35 13 19 1019.1 1017.3 0.0
20/02:00pm 31.8 24.9 0.0 13 15.6 E 26 33 14 18 1019.6 1017.8 0.0
20/01:30pm 31.1 25.0 0.5 14 15.1 ENE 22 33 12 18 1020.0 1018.2 0.0
20/01:00pm 31.2 24.4 0.6 14 15.1 E 26 37 14 20 1020.4 1018.7 0.0
20/12:30pm 30.4 23.6 0.9 15 14.6 E 26 41 14 22 1020.9 1019.2 0.0
20/12:00pm 29.4 23.1 1.8 17 13.8 E 24 37 13 20 1021.3 1019.6 0.0
20/11:30am 29.1 21.8 2.4 18 13.5 E 30 44 16 24 1021.9 1020.1 0.0
20/11:00am 28.9 21.9 2.2 18 13.4 ENE 28 41 15 22 1022.2 1020.4 0.0
20/10:30am 27.2 20.6 2.3 20 12.4 ENE 26 39 14 21 1022.8 1021.1 0.0
20/10:00am 26.1 19.2 2.7 22 11.6 ENE 28 41 15 22 1023.2 1021.5 0.0
20/09:30am 25.2 17.4 2.0 22 11.3 ENE 32 43 17 23 1023.6 1021.9 0.0
20/09:00am 24.2 16.5 2.4 24 10.6 ENE 32 44 17 24 1023.8 1022.1 0.0
20/08:30am 23.1 15.3 2.0 25 10.1 ENE 32 44 17 24 1023.7 1022.0 0.0
20/08:00am 22.2 14.4 1.8 26 9.7 ENE 32 46 17 25 1023.4 1021.7 0.0
20/07:45am 21.9 14.5 1.6 26 9.6 ENE 30 48 16 26 1023.4 1021.7 0.0
20/07:30am 21.3 13.2 1.0 26 9.4 ENE 33 44 18 24 1023.3 1021.6 0.0
20/07:13am 20.8 13.7 1.1 27 9.1 ENE 28 46 15 25 1023.2 1021.5 0.0
20/07:00am 20.5 13.0 0.9 27 9.0 ENE 30 44 16 24 1023.1 1021.4 0.0
20/06:55am 20.2 12.7 1.1 28 8.8 ENE 30 44 16 24 1023.1 1021.4 0.0
20/06:30am 18.8 13.7 0.9 30 8.1 E 17 24 9 13 1023.1 1021.4 0.0
20/06:00am 17.2 12.8 0.4 32 7.4 E 13 17 7 9 1022.8 1021.1 0.0
20/05:30am 17.0 12.6 0.2 32 7.4 E 13 17 7 9 1022.5 1020.8 0.0
20/05:00am 17.7 12.9 0.4 31 7.7 E 15 20 8 11 1022.2 1020.4 0.0
20/04:30am 18.0 12.8 0.2 30 7.9 E 17 20 9 11 1021.9 1020.1 0.0
20/04:00am 18.6 13.4 0.2 29 8.2 E 17 22 9 12 1021.7 1019.9 0.0
20/03:30am 19.3 13.8 0.4 28 8.6 E 19 24 10 13 1021.3 1019.6 0.0
20/03:00am 19.8 14.1 0.3 27 8.8 E 20 28 11 15 1021.2 1019.5 0.0
20/02:30am 20.1 14.3 0.0 26 9.1 E 20 28 11 15 1021.2 1019.5 0.0
20/02:00am 20.4 14.7 0.3 26 9.1 E 20 26 11 14 1021.1 1019.4 0.0
20/01:30am 20.7 14.9 0.0 25 9.4 E 20 26 11 14 1021.3 1019.6 0.0
20/01:00am 21.1 14.9 -0.2 24 9.6 E 22 30 12 16 1021.4 1019.7 0.0
20/12:30am 21.5 15.4 0.1 24 9.8 E 22 32 12 17 1021.5 1019.8 0.0
20/12:00am 21.9 15.0 -0.1 23 10.0 E 26 39 14 21 1021.8 1020.0 0.0
 
Date/Time
WST
Temp
°C
App
Temp
°C
Dew
Point
°C
Rel
Hum
%
Delta-T
°C
Wind Press
QNH
hPa
Press
MSL
hPa
Rain since
9am
mm
Dir  Spd
km/h
Gust
km/h
Spd
kts
Gust
kts
19/11:30pm 22.3 15.0 0.2 23 10.2 E 28 43 15 23 1022.1 1020.3 0.0
19/11:00pm 22.6 15.6 -0.2 22 10.4 E 26 35 14 19 1022.2 1020.4 0.0
19/10:30pm 22.8 16.3 0.0 22 10.5 E 24 32 13 17 1022.2 1020.4 0.0
19/10:00pm 23.2 16.6 -0.3 21 10.8 ESE 24 39 13 21 1022.3 1020.5 0.0
19/09:30pm 23.5 17.7 -1.4 19 11.3 ESE 19 26 10 14 1022.3 1020.5 0.0
19/09:00pm 23.6 18.1 -2.1 18 11.4 ESE 17 24 9 13 1022.2 1020.4 0.0
19/08:30pm 23.8 19.0 -2.7 17 11.7 ESE 13 17 7 9 1022.0 1020.2 0.0
19/08:00pm 25.0 19.3 -3.4 15 12.5 ESE 17 20 9 11 1021.7 1019.9 0.0
19/07:30pm 25.5 19.9 -3.0 15 12.7 ESE 17 20 9 11 1021.2 1019.5 0.0
19/07:00pm 26.2 20.9 -3.4 14 13.1 ESE 15 20 8 11 1020.8 1019.1 0.0
19/06:30pm 27.1 20.8 -3.7 13 13.7 ESE 20 30 11 16 1020.4 1018.7 0.0
19/06:00pm 28.0 21.4 -3.0 13 14.1 ESE 22 32 12 17 1020.1 1018.3 0.0
19/05:30pm 28.7 22.1 -3.5 12 14.6 E 22 30 12 16 1019.8 1018.0 0.0
19/05:00pm 28.9 22.3 -3.3 12 14.6 E 22 39 12 21 1019.6 1017.8 0.0
19/04:30pm 29.3 23.0 -4.2 11 15.1 ENE 20 30 11 16 1019.5 1017.7 0.0
19/04:00pm 29.2 22.1 -4.3 11 15.0 E 24 35 13 19 1019.4 1017.6 0.0
19/03:30pm 29.0 21.8 -5.7 10 15.2 E 24 35 13 19 1019.4 1017.6 0.0
19/03:00pm 28.6 21.5 -4.7 11 14.7 E 24 39 13 21 1019.4 1017.6 0.0
19/02:30pm 28.4 20.5 -4.9 11 14.7 E 28 41 15 22 1019.6 1017.8 0.0
19/02:00pm 28.6 21.2 -3.6 12 14.5 E 26 44 14 24 1019.9 1018.1 0.0
19/01:30pm 28.4 20.6 -3.7 12 14.5 E 28 43 15 23 1020.3 1018.6 0.0
19/01:00pm 28.3 20.5 -3.8 12 14.4 ESE 28 44 15 24 1020.8 1019.1 0.0
19/12:30pm 26.6 20.1 -2.1 15 13.1 E 22 41 12 22 1021.4 1019.7 0.0
19/12:00pm 25.9 17.9 -2.7 15 12.8 ESE 30 44 16 24 1021.8 1020.0 0.0
19/11:30am 25.9 18.2 -2.7 15 12.9 ESE 28 41 15 22 1022.0 1020.2 0.0
19/11:00am 25.4 17.0 -2.2 16 12.4 E 32 41 17 22 1022.6 1020.9 0.0
19/10:30am 25.2 17.8 -0.8 18 12.1 E 28 39 15 21 1022.8 1021.1 0.0
19/10:00am 23.8 16.7 -1.2 19 11.3 E 26 33 14 18 1023.2 1021.5 0.0
19/09:30am 22.9 15.4 -1.2 20 10.9 ESE 28 37 15 20 1023.3 1021.6 0.0
19/09:00am 20.8 13.3 -1.7 22 9.8 E 28 39 15 21 1023.5 1021.8 0.0
19/08:30am 20.3 12.5 -0.9 24 9.4 ESE 30 39 16 21 1023.4 1021.7 0.0
19/08:00am 19.4 11.6 -0.6 26 8.8 ESE 30 37 16 20 1023.2 1021.5 0.0
19/07:30am 17.6 9.8 -0.6 29 8.0 ESE 30 39 16 21 1023.2 1021.5 0.0
19/07:00am 16.7 9.8 -0.1 32 7.3 ESE 26 35 14 19 1023.2 1021.5 0.0
19/06:30am 15.2 9.6 0.2 36 6.5 ESE 19 28 10 15 1023.1 1021.4 0.0
19/06:00am 13.9 9.1 0.2 39 5.9 SE 15 19 8 10 1022.8 1021.1 0.0
19/05:30am 13.5 9.1 0.5 41 5.6 SE 13 19 7 10 1022.4 1020.7 0.0
19/05:00am 13.7 8.9 0.4 40 5.7 SE 15 22 8 12 1022.3 1020.5 0.0
19/04:30am 14.0 9.6 0.6 40 5.8 SE 13 20 7 11 1022.0 1020.2 0.0
19/04:00am 14.1 9.8 0.7 40 5.8 SE 13 17 7 9 1021.8 1020.0 0.0
19/03:30am 14.1 10.2 1.1 41 5.7 SSE 11 15 6 8 1021.5 1019.8 0.0
19/03:00am 14.5 10.6 1.1 40 5.9 SSE 11 15 6 8 1021.3 1019.6 0.0
19/02:30am 14.8 10.1 1.0 39 6.1 SSE 15 17 8 9 1021.4 1019.7 0.0
19/02:00am 15.1 10.5 1.3 39 6.1 SSE 15 19 8 10 1021.4 1019.7 0.0
19/01:30am 15.6 10.2 1.0 37 6.5 SSE 19 22 10 12 1021.5 1019.8 0.0
19/01:00am 16.1 10.5 1.4 37 6.6 SSE 20 28 11 15 1021.7 1019.9 0.0
19/12:30am 16.6 11.2 1.5 36 6.8 SSE 19 28 10 15 1021.7 1019.9 0.0
19/12:00am 16.9 11.5 1.4 35 7.0 SSE 19 24 10 13 1021.7 1019.9 0.0
 
Date/Time
WST
Temp
°C
App
Temp
°C
Dew
Point
°C
Rel
Hum
%
Delta-T
°C
Wind Press
QNH
hPa
Press
MSL
hPa
Rain since
9am
mm
Dir  Spd
km/h
Gust
km/h
Spd
kts
Gust
kts
18/11:30pm 17.2 11.5 0.8 33 7.4 SSE 20 28 11 15 1021.7 1019.9 0.0
18/11:00pm 17.9 12.3 1.0 32 7.6 SSE 20 26 11 14 1021.7 1019.9 0.0
18/10:30pm 18.4 12.4 1.0 31 7.9 SSE 22 32 12 17 1021.4 1019.7 0.0
18/10:00pm 18.9 13.2 0.5 29 8.3 SSE 20 26 11 14 1021.4 1019.7 0.0
18/09:30pm 19.4 13.8 -0.1 27 8.7 SSE 19 24 10 13 1021.4 1019.7 0.0
18/09:00pm 19.8 14.2 -0.2 26 8.9 SSE 19 24 10 13 1021.3 1019.6 0.0
18/08:30pm 20.2 15.0 0.1 26 9.1 S 17 22 9 12 1021.0 1019.3 0.0
18/08:00pm 21.0 15.5 0.8 26 9.3 S 19 26 10 14 1020.6 1018.9 0.0
18/07:30pm 21.1 17.1 0.3 25 9.5 SSW 11 15 6 8 1020.1 1018.3 0.0
18/07:00pm 21.9 16.7 0.4 24 9.9 SSW 17 20 9 11 1019.7 1017.9 0.0
18/06:30pm 22.5 17.0 0.4 23 10.3 SSW 19 26 10 14 1019.3 1017.5 0.0
18/06:00pm 23.1 17.3 0.2 22 10.6 SSW 20 28 11 15 1018.7 1017.0 0.0
18/05:30pm 23.6 18.5 0.7 22 10.8 SSW 17 32 9 17 1018.2 1016.5 0.0
18/05:00pm 24.1 18.1 1.1 22 10.9 S 22 30 12 16 1017.9 1016.1 0.0
18/04:30pm 24.2 18.9 1.8 23 10.8 SW 19 30 10 16 1017.6 1015.8 0.0
18/04:00pm 24.0 18.5 1.6 23 10.7 SSW 20 32 11 17 1017.5 1015.7 0.0
18/03:30pm 23.6 17.8 2.4 25 10.3 SW 22 30 12 16 1017.5 1015.7 0.0
18/03:00pm 23.5 18.7 2.4 25 10.2 SSW 17 28 9 15 1017.5 1015.7 0.0
18/02:30pm 23.2 18.3 4.2 29 9.5 SSW 19 33 10 18 1017.7 1015.9 0.0
18/02:00pm 22.4 17.4 4.5 31 9.0 SSW 20 32 11 17 1018.1 1016.4 0.0
18/01:30pm 22.1 17.2 5.1 33 8.6 SSW 20 30 11 16 1018.4 1016.7 0.0
18/01:00pm 22.2 17.8 6.4 36 8.2 S 19 33 10 18 1018.5 1016.8 0.0
18/12:30pm 21.2 17.1 6.3 38 7.7 SSW 17 28 9 15 1019.1 1017.3 0.0
18/12:00pm 19.9 15.3 6.6 42 6.8 SSW 20 28 11 15 1019.5 1017.7 0.0
18/11:30am 19.9 15.7 7.3 44 6.6 SSW 19 26 10 14 1019.7 1017.9 0.0
18/11:09am 19.8 16.1 7.9 46 6.3 SW 17 61 9 33 1019.7 1017.9 0.0
18/11:00am 19.3 14.9 7.4 46 6.2 SSW 20 33 11 18 1019.9 1018.1 0.0
18/10:30am 19.0 14.3 7.8 48 5.8 SW 22 32 12 17 1020.1 1018.3 0.0
18/10:00am 17.6 13.0 8.2 54 4.9 SSW 22 35 12 19 1020.3 1018.6 0.0
18/09:30am 17.1 12.2 8.5 57 4.5 S 24 33 13 18 1020.5 1018.8 0.0
18/09:00am 17.7 12.1 8.8 56 4.7 SSW 28 37 15 20 1020.2 1018.5 0.0
18/08:30am 17.0 11.5 9.2 60 4.1 SW 28 35 15 19 1020.0 1018.2 0.0
18/08:00am 16.1 10.6 9.1 63 3.7 SW 28 39 15 21 1019.5 1017.7 0.0
18/07:30am 15.1 10.8 9.2 68 3.1 SW 22 30 12 16 1019.3 1017.5 0.0
18/07:00am 13.7 9.7 9.0 73 2.4 SW 20 26 11 14 1018.7 1017.0 0.0
18/06:30am 12.8 9.0 8.9 77 2.0 SW 19 26 10 14 1018.3 1016.6 0.0
18/06:00am 12.0 8.7 8.1 77 2.0 SW 15 19 8 10 1018.0 1016.3 0.0
18/05:30am 11.7 8.7 7.8 77 1.9 SW 13 17 7 9 1017.5 1015.7 0.0
18/05:00am 12.0 8.2 7.7 75 2.1 SW 17 20 9 11 1017.0 1015.2 0.0
18/04:30am 12.3 8.9 7.8 74 2.2 SW 15 19 8 10 1016.7 1014.9 0.0
18/04:00am 12.5 9.1 7.6 72 2.4 SW 15 20 8 11 1016.4 1014.7 0.0
18/03:30am 12.7 9.9 7.0 68 2.8 SW 11 15 6 8 1016.3 1014.6 0.0
18/03:00am 13.0 9.7 6.6 65 3.1 SW 13 17 7 9 1016.2 1014.5 0.0
18/02:30am 13.3 10.0 6.2 62 3.5 SW 13 17 7 9 1016.0 1014.3 0.0
18/02:00am 13.8 9.6 5.9 59 3.8 SW 17 20 9 11 1016.0 1014.3 0.0
18/01:30am 14.1 9.9 5.7 57 4.1 SW 17 20 9 11 1015.9 1014.2 0.0
18/01:00am 14.4 10.2 5.7 56 4.2 SW 17 24 9 13 1015.9 1014.2 0.0
18/12:30am 14.8 10.3 5.9 55 4.4 SW 19 26 10 14 1016.0 1014.3 0.0
18/12:00am 15.2 11.0 5.7 53 4.6 SW 17 24 9 13 1016.0 1014.3 0.0
 
Date/Time
WST
Temp
°C
App
Temp
°C
Dew
Point
°C
Rel
Hum
%
Delta-T
°C
Wind Press
QNH
hPa
Press
MSL
hPa
Rain since
9am
mm
Dir  Spd
km/h
Gust
km/h
Spd
kts
Gust
kts
17/11:30pm 15.6 11.0 5.8 52 4.8 SW 19 26 10 14 1015.9 1014.2 0.0
17/11:00pm 16.1 10.6 6.0 51 5.0 SW 24 35 13 19 1015.9 1014.2 0.0
17/10:30pm 16.7 10.4 5.9 49 5.4 SW 28 35 15 19 1015.7 1013.9 0.0
17/10:00pm 17.8 10.8 6.0 46 5.9 SW 32 43 17 23 1015.4 1013.6 0.0
17/09:30pm 19.1 13.3 6.2 43 6.5 WSW 26 35 14 19 1015.1 1013.3 0.0
17/09:00pm 20.1 15.5 6.5 41 7.0 WSW 20 30 11 16 1014.9 1013.1 0.0
17/08:30pm 20.7 17.3 5.9 38 7.5 WSW 13 20 7 11 1014.6 1012.8 0.0
17/08:00pm 21.3 17.2 6.0 37 7.8 WSW 17 20 9 11 1014.2 1012.4 0.0
17/07:30pm 21.6 17.1 5.9 36 8.0 WSW 19 24 10 13 1013.6 1011.9 0.0
17/07:00pm 22.0 17.4 5.8 35 8.3 WSW 19 26 10 14 1013.2 1011.4 0.0
17/06:30pm 22.5 17.9 5.4 33 8.7 WSW 19 26 10 14 1012.7 1010.9 0.0
17/06:00pm 22.9 17.7 5.3 32 9.0 WSW 22 33 12 18 1012.2 1010.4 0.0
17/05:30pm 23.7 18.5 5.6 31 9.3 WSW 22 33 12 18 1011.9 1010.1 0.0
17/05:00pm 23.4 17.8 5.3 31 9.3 W 24 33 13 18 1011.6 1009.8 0.0

Other Formats:

Comma delimited format used in spreadsheet applications
http://www.bom.gov.au/fwo/IDW60801/IDW60801.94429.axf

JavaScript Object Notation format (JSON) in row-major order
http://www.bom.gov.au/fwo/IDW60801/IDW60801.94429.json